Terminal Aerodrome Forecast
Issued by NWS

Home | Current Version | Previous Version | Text Only | Print | Product List | Glossary On
Versions: 1 2 3 4 5 6 7 8 9 10 11 12 13 14
000
FTUS41 KBGM 271730
TAFRME
TAF
KRME 271730Z 2718/2818 24008KT P6SM BKN035 BKN100
     FM280100 VRB03KT P6SM FEW050 BKN150
      TEMPO 2808/2812 1 1/2SM BR SCT007
     FM281600 29006KT P6SM FEW040 SCT120=

USA.gov is the U.S. government's official web portal to all federal, state and local government web resources and services.